Johnson, Kansas
Current Conditions -  °F | °C
As of 4:35 AM on Sunday 26 Oct 2014 (Local Time) from K3K3 Reporting Station
Clear Clear  
Wind Chill: 52°   Ceiling: Unl
Heat Index: 52°   Visibility: 10mi
Dew Point: 43°   Wind: 3mph
Humidity: 71%   Direction: 180°S
Pressure: 29.81"   Gusts: NA
Location:  37.57°N, 101.75°W
Report Text: K3K3 260935Z AUTO 18003KT 10SM CLR 11/06 A2981 RMK AO2
Loading
Personal Weather Stations






























Interactive Weather Map
Tropical Storm Tracking
New forecast layout! Learn more

10-Day Weather Forecast

Advertisements
Track Severe Weather on mobile